Terminal Aerodrome Forecast
Issued by NWS

Home | Current Version | Previous Version | Graphics & Text | Print | Product List | Glossary On
Versions: 1 2 3 4 5 6 7 8 9 10 11 12 13 14 15 16 17 18 19 20 21 22 23
000
FTUS43 KBIS 241300 AAA
TAFMOT
TAF AMD
KMOT 241311Z 2413/2512 18011KT P6SM SCT006 BKN090
      TEMPO 2413/2416 BKN006
     FM241600 23008KT P6SM BKN015
     FM241800 23012KT P6SM -SHRA BKN010 OVC015
     FM250300 26012KT 5SM -SHRA BR OVC010=

USA.gov is the U.S. government's official web portal to all federal, state and local government web resources and services.